createdAt,value
2018-04-22T00:00:39.017Z,54.90
2018-04-22T00:03:06.614Z,55.70
2018-04-22T00:05:34.097Z,52.27
2018-04-22T00:08:01.565Z,52.30
2018-04-22T00:10:29.057Z,49.57
2018-04-22T00:12:56.516Z,51.40
2018-04-22T00:15:23.997Z,52.90
2018-04-22T00:17:51.467Z,49.83
2018-04-22T00:20:18.936Z,51.90
2018-04-22T00:22:46.432Z,53.60
2018-04-22T00:25:14.687Z,54.23
2018-04-22T00:27:42.171Z,52.50
2018-04-22T00:30:10.437Z,51.93
2018-04-22T00:32:38.007Z,51.63
2018-04-22T00:35:06.303Z,49.57
2018-04-22T00:37:33.809Z,49.63
2018-04-22T00:40:01.330Z,53.37
2018-04-22T00:42:28.825Z,50.17
2018-04-22T00:44:56.296Z,51.30
2018-04-22T00:47:23.784Z,50.40
2018-04-22T00:49:52.037Z,54.30
2018-04-22T00:52:19.585Z,51.03
2018-04-22T00:54:47.069Z,53.87
2018-04-22T00:57:14.546Z,51.77
2018-04-22T00:59:42.813Z,50.00
2018-04-22T01:02:11.109Z,51.50
2018-04-22T01:04:38.577Z,50.10
2018-04-22T01:07:06.073Z,50.27
2018-04-22T01:09:33.548Z,51.60
2018-04-22T01:12:01.029Z,49.40
2018-04-22T01:14:29.269Z,51.60
2018-04-22T01:16:56.737Z,49.40
2018-04-22T01:19:24.213Z,50.23
2018-04-22T01:21:51.672Z,49.40
2018-04-22T01:24:19.149Z,52.43
2018-04-22T01:26:47.496Z,49.87
2018-04-22T01:29:14.974Z,49.00
2018-04-22T01:31:42.429Z,51.60
2018-04-22T01:34:09.914Z,49.30
2018-04-22T01:36:37.487Z,48.10
2018-04-22T01:39:05.706Z,49.33
2018-04-22T01:41:33.925Z,50.13
2018-04-22T01:44:02.170Z,53.53
2018-04-22T01:46:29.665Z,49.70
2018-04-22T01:48:57.131Z,49.13
2018-04-22T01:51:24.595Z,52.47
2018-04-22T01:53:52.072Z,51.23
2018-04-22T01:56:19.576Z,50.90
2018-04-22T01:58:47.952Z,52.83
2018-04-22T02:01:15.440Z,51.87
2018-04-22T02:03:42.922Z,52.13
2018-04-22T02:06:10.396Z,52.93
2018-04-22T02:08:37.891Z,52.90
2018-04-22T02:11:06.146Z,53.33
2018-04-22T02:13:33.624Z,53.50
2018-04-22T02:16:01.450Z,55.60
2018-04-22T02:18:29.012Z,55.07
2018-04-22T02:20:56.500Z,55.23
2018-04-22T02:23:23.960Z,54.97
2018-04-22T02:25:51.488Z,54.23
2018-04-22T02:28:18.978Z,55.83
2018-04-22T02:30:46.460Z,53.00
2018-04-22T02:33:14.693Z,52.40
2018-04-22T02:35:42.163Z,51.47
2018-04-22T02:38:09.632Z,55.80
2018-04-22T02:40:37.113Z,55.70
2018-04-22T02:43:05.376Z,52.17
2018-04-22T02:45:32.853Z,52.27
2018-04-22T02:48:01.091Z,52.00
2018-04-22T02:50:28.588Z,49.53
2018-04-22T02:52:56.820Z,51.60
2018-04-22T02:55:24.345Z,54.50
2018-04-22T02:57:52.387Z,54.93
2018-04-22T03:00:20.617Z,52.37
2018-04-22T03:02:48.114Z,52.23
2018-04-22T03:05:15.597Z,54.67
2018-04-22T03:07:43.061Z,52.90
2018-04-22T03:10:10.534Z,50.27
2018-04-22T03:12:38.043Z,49.63
2018-04-22T03:15:05.512Z,50.30
2018-04-22T03:17:33.780Z,53.13
2018-04-22T03:20:02.037Z,53.67
2018-04-22T03:22:29.624Z,52.47
2018-04-22T03:24:57.141Z,51.53
2018-04-22T03:27:24.617Z,51.37
2018-04-22T03:29:52.085Z,52.87
2018-04-22T03:32:19.621Z,54.30
2018-04-22T03:34:47.101Z,55.90
2018-04-22T03:37:14.573Z,53.50
2018-04-22T03:39:42.185Z,56.97
2018-04-22T03:42:09.799Z,56.27
2018-04-22T03:44:37.272Z,56.70
2018-04-22T03:47:05.517Z,52.30
2018-04-22T03:49:33.021Z,56.67
2018-04-22T03:52:01.262Z,56.70
2018-04-22T03:54:28.810Z,56.50
2018-04-22T03:56:56.302Z,55.60
2018-04-22T03:59:24.548Z,55.60
2018-04-22T04:01:52.050Z,56.40
2018-04-22T04:04:20.300Z,57.90
2018-04-22T04:06:47.772Z,56.93
2018-04-22T04:09:16.024Z,57.43
2018-04-22T04:11:43.507Z,54.17
2018-04-22T04:14:11.766Z,57.20
2018-04-22T04:16:39.238Z,53.87
2018-04-22T04:19:18.743Z,54.27
2018-04-22T04:21:58.977Z,59.73
2018-04-22T04:24:39.227Z,62.30
2018-04-22T04:27:18.615Z,58.97
2018-04-22T04:29:46.122Z,65.30
2018-04-22T04:32:13.616Z,60.33
2018-04-22T04:34:41.099Z,59.27
2018-04-22T04:37:08.601Z,60.70
2018-04-22T04:39:36.838Z,55.80
2018-04-22T04:42:04.344Z,59.70
2018-04-22T04:44:31.843Z,57.07
2018-04-22T04:46:59.387Z,59.10
2018-04-22T04:49:26.857Z,59.30
2018-04-22T04:51:54.325Z,57.70
2018-04-22T04:54:21.818Z,59.07
2018-04-22T04:56:50.081Z,52.60
2018-04-22T04:59:17.595Z,56.17
2018-04-22T05:01:45.401Z,56.10
2018-04-22T05:04:12.870Z,56.50
2018-04-22T05:06:40.344Z,52.90
2018-04-22T05:09:07.954Z,54.23
2018-04-22T05:11:35.449Z,53.43
2018-04-22T05:14:02.926Z,56.50
2018-04-22T05:16:31.197Z,54.23
2018-04-22T05:18:59.439Z,53.27
2018-04-22T05:21:26.922Z,51.50
2018-04-22T05:23:55.168Z,48.60
2018-04-22T05:26:22.782Z,50.33
2018-04-22T05:28:50.378Z,49.97
2018-04-22T05:31:17.918Z,48.63
2018-04-22T05:33:46.184Z,45.80
2018-04-22T05:36:14.478Z,43.73
2018-04-22T05:38:41.968Z,40.57
2018-04-22T05:41:09.438Z,39.20
2018-04-22T05:43:36.916Z,38.80
2018-04-22T05:46:05.181Z,36.70
2018-04-22T05:48:32.679Z,39.43
2018-04-22T05:51:00.155Z,36.87
2018-04-22T05:53:27.740Z,37.47
2018-04-22T05:55:55.236Z,40.70
2018-04-22T05:58:22.708Z,44.07
2018-04-22T06:00:50.964Z,38.60
2018-04-22T06:03:18.442Z,37.70
2018-04-22T06:05:46.673Z,34.23
2018-04-22T06:08:14.158Z,34.53
2018-04-22T06:10:42.435Z,32.73
2018-04-22T06:13:09.918Z,34.53
2018-04-22T06:15:38.169Z,34.20
2018-04-22T06:18:05.646Z,32.93
2018-04-22T06:20:33.884Z,32.80
2018-04-22T06:23:02.180Z,30.93
2018-04-22T06:25:31.402Z,28.17
2018-04-22T06:27:59.062Z,31.12
2018-04-22T06:30:27.304Z,28.90
2018-04-22T06:32:54.780Z,29.17
2018-04-22T06:35:22.290Z,28.58
2018-04-22T06:37:49.889Z,23.62
2018-04-22T06:40:17.381Z,22.70
2018-04-22T06:42:44.855Z,19.15
2018-04-22T06:45:12.345Z,13.27
2018-04-22T06:47:39.859Z,13.32
2018-04-22T06:50:08.143Z,12.07
2018-04-22T06:52:36.412Z,11.05
2018-04-22T06:55:04.674Z,11.45
2018-04-22T06:57:32.139Z,10.32
2018-04-22T07:00:00.421Z,11.10
2018-04-22T07:02:28.676Z,10.52
2018-04-22T07:04:56.151Z,10.63
2018-04-22T07:07:24.406Z,10.38
2018-04-22T07:09:52.180Z,10.23
2018-04-22T07:12:19.657Z,9.23
2018-04-22T07:14:47.906Z,9.50
2018-04-22T07:17:15.409Z,9.98
2018-04-22T07:19:43.728Z,9.23
2018-04-22T07:22:11.322Z,9.57
2018-04-22T07:24:38.786Z,8.10
2018-04-22T07:27:06.338Z,8.57
2018-04-22T07:29:33.808Z,9.43
2018-04-22T07:32:02.222Z,8.27
2018-04-22T07:34:29.740Z,7.87
2018-04-22T07:36:57.219Z,7.87
2018-04-22T07:39:25.495Z,9.00
2018-04-22T07:41:53.041Z,9.15
2018-04-22T07:44:20.516Z,7.60
2018-04-22T07:46:47.995Z,9.00
2018-04-22T07:49:15.478Z,8.57
2018-04-22T07:51:42.955Z,7.50
2018-04-22T07:54:10.510Z,9.18
2018-04-22T07:56:38.016Z,8.85
2018-04-22T07:59:06.266Z,7.85
2018-04-22T08:01:33.776Z,7.00
2018-04-22T08:04:01.237Z,7.75
2018-04-22T08:06:28.719Z,7.45
2018-04-22T08:08:56.258Z,6.85
2018-04-22T08:11:23.732Z,6.82
2018-04-22T08:13:51.249Z,6.97
2018-04-22T08:16:19.496Z,7.32
2018-04-22T08:18:46.972Z,6.65
2018-04-22T08:21:14.453Z,6.60
2018-04-22T08:23:43.161Z,6.40
2018-04-22T08:26:10.748Z,5.97
2018-04-22T08:28:38.307Z,6.50
2018-04-22T08:31:05.804Z,6.53
2018-04-22T08:33:34.053Z,6.20
2018-04-22T08:36:01.534Z,6.25
2018-04-22T08:38:29.792Z,6.32
2018-04-22T08:40:57.272Z,5.70
2018-04-22T08:43:25.510Z,6.65
2018-04-22T08:45:52.977Z,6.05
2018-04-22T08:48:20.557Z,7.43
2018-04-22T08:50:48.089Z,6.12
2018-04-22T08:53:15.557Z,7.40
2018-04-22T08:55:43.046Z,6.85
2018-04-22T08:58:11.398Z,6.32
2018-04-22T09:00:38.889Z,6.22
2018-04-22T09:03:07.108Z,6.22
2018-04-22T09:05:34.593Z,5.68
2018-04-22T09:08:02.069Z,6.47
2018-04-22T09:10:29.542Z,6.25
2018-04-22T09:12:57.813Z,6.78
2018-04-22T09:15:25.330Z,6.70
2018-04-22T09:17:52.974Z,5.95
2018-04-22T09:20:20.565Z,6.22
2018-04-22T09:22:48.061Z,5.57
2018-04-22T09:25:16.349Z,6.62
2018-04-22T09:27:44.577Z,7.15
2018-04-22T09:30:12.131Z,6.47
2018-04-22T09:32:39.606Z,6.55
2018-04-22T09:35:07.107Z,6.03
2018-04-22T09:37:34.737Z,5.85
2018-04-22T09:40:02.218Z,6.28
2018-04-22T09:42:29.721Z,6.53
2018-04-22T09:44:57.209Z,6.35
2018-04-22T09:47:25.780Z,6.72
2018-04-22T09:49:53.306Z,5.90
2018-04-22T09:52:20.838Z,6.60
2018-04-22T09:54:49.089Z,6.22
2018-04-22T09:57:17.422Z,5.87
2018-04-22T09:59:45.007Z,5.93
2018-04-22T10:02:16.261Z,6.00
2018-04-22T10:04:47.336Z,6.07
2018-04-22T10:07:15.608Z,6.12
2018-04-22T10:09:43.253Z,6.85
2018-04-22T10:12:10.712Z,6.93
2018-04-22T10:14:38.209Z,6.87
2018-04-22T10:17:06.512Z,6.78
2018-04-22T10:19:33.999Z,9.27
2018-04-22T10:22:01.497Z,6.78
2018-04-22T10:24:29.012Z,6.40
2018-04-22T10:26:56.500Z,7.37
2018-04-22T10:29:24.025Z,6.43
2018-04-22T10:31:51.544Z,6.65
2018-04-22T10:34:19.836Z,6.70
2018-04-22T10:36:47.299Z,7.30
2018-04-22T10:39:14.795Z,7.72
2018-04-22T10:41:42.264Z,6.47
2018-04-22T10:44:09.773Z,7.62
2018-04-22T10:46:37.247Z,6.62
2018-04-22T10:49:04.730Z,7.85
2018-04-22T10:51:34.209Z,7.00
2018-04-22T10:54:01.747Z,6.93
2018-04-22T10:56:30.485Z,8.38
2018-04-22T10:58:57.998Z,8.10
2018-04-22T11:01:25.449Z,6.95
2018-04-22T11:03:56.104Z,7.40
2018-04-22T11:06:23.874Z,7.32
2018-04-22T11:08:51.353Z,7.60
2018-04-22T11:11:19.639Z,7.40
2018-04-22T11:13:47.228Z,6.30
2018-04-22T11:16:14.701Z,7.45
2018-04-22T11:18:42.944Z,6.32
2018-04-22T11:21:11.236Z,8.07
2018-04-22T11:23:39.478Z,7.20
2018-04-22T11:26:06.964Z,7.00
2018-04-22T11:28:35.329Z,7.97
2018-04-22T11:31:02.799Z,8.00
2018-04-22T11:33:30.413Z,6.45
2018-04-22T11:35:57.906Z,8.68
2018-04-22T11:38:25.424Z,7.90
2018-04-22T11:40:52.909Z,7.35
2018-04-22T11:43:20.848Z,7.95
2018-04-22T11:45:49.040Z,9.52
2018-04-22T11:48:16.528Z,8.70
2018-04-22T11:50:44.010Z,9.45
2018-04-22T11:53:11.557Z,10.18
2018-04-22T11:55:39.069Z,9.40
2018-04-22T11:58:06.581Z,12.15
2018-04-22T12:00:34.279Z,7.85
2018-04-22T12:03:02.547Z,9.52
2018-04-22T12:05:30.266Z,8.90
2018-04-22T12:07:57.743Z,10.48
2018-04-22T12:10:25.232Z,8.10
2018-04-22T12:12:52.745Z,8.52
2018-04-22T12:15:20.209Z,9.10
2018-04-22T12:17:49.688Z,7.60
2018-04-22T12:20:17.168Z,6.30
2018-04-22T12:22:44.673Z,7.13
2018-04-22T12:25:12.957Z,8.33
2018-04-22T12:27:40.979Z,9.80
2018-04-22T12:30:08.489Z,10.93
2018-04-22T12:32:35.959Z,12.20
2018-04-22T12:35:03.444Z,12.20
2018-04-22T12:37:31.162Z,14.17
2018-04-22T12:39:59.420Z,15.80
2018-04-22T12:42:27.673Z,11.30
2018-04-22T12:44:55.365Z,11.33
2018-04-22T12:47:22.870Z,13.70
2018-04-22T12:49:50.657Z,11.70
2018-04-22T12:52:18.267Z,10.87
2018-04-22T12:54:46.533Z,9.67
2018-04-22T12:57:14.042Z,11.20
2018-04-22T12:59:41.512Z,10.73
2018-04-22T13:02:09.024Z,7.90
2018-04-22T13:04:37.384Z,7.77
2018-04-22T13:07:04.859Z,7.00
2018-04-22T13:09:33.128Z,10.80
2018-04-22T13:12:01.466Z,8.83
2018-04-22T13:14:29.000Z,7.73
2018-04-22T13:16:56.471Z,7.67
2018-04-22T13:19:23.950Z,8.67
2018-04-22T13:21:51.509Z,6.80
2018-04-22T13:24:19.004Z,7.23
2018-04-22T13:26:47.279Z,6.80
2018-04-22T13:29:14.916Z,6.10
2018-04-22T13:31:42.474Z,7.03
2018-04-22T13:34:10.207Z,7.30
2018-04-22T13:36:37.691Z,5.50
2018-04-22T13:39:05.210Z,6.53
2018-04-22T13:41:33.477Z,5.43
2018-04-22T13:44:01.877Z,5.80
2018-04-22T13:46:29.368Z,6.90
2018-04-22T13:48:56.870Z,6.43
2018-04-22T13:51:25.114Z,6.67
2018-04-22T13:53:52.608Z,7.60
2018-04-22T13:56:20.876Z,7.30
2018-04-22T13:58:48.409Z,8.53
2018-04-22T14:01:15.908Z,7.63
2018-04-22T14:03:44.340Z,9.37
2018-04-22T14:06:11.907Z,9.87
2018-04-22T14:08:39.428Z,10.30
2018-04-22T14:11:06.978Z,9.63
2018-04-22T14:13:34.499Z,29.13
2018-04-22T14:16:01.996Z,36.00
2018-04-22T14:18:29.537Z,33.27
2018-04-22T14:20:58.059Z,34.33
2018-04-22T14:23:25.693Z,21.60
2018-04-22T14:25:54.053Z,20.23
2018-04-22T14:28:21.590Z,15.13
2018-04-22T14:30:49.128Z,11.00
2018-04-22T14:33:16.676Z,12.40
2018-04-22T14:35:44.946Z,10.33
2018-04-22T14:38:12.466Z,10.03
2018-04-22T14:40:39.931Z,8.60
2018-04-22T14:43:07.480Z,8.10
2018-04-22T14:45:46.939Z,9.10
2018-04-22T14:48:15.289Z,8.17
2018-04-22T14:50:42.844Z,9.80
2018-04-22T14:53:10.343Z,9.07
2018-04-22T14:55:38.656Z,8.50
2018-04-22T14:58:06.230Z,8.80
2018-04-22T15:00:33.758Z,7.87
2018-04-22T15:03:01.258Z,7.90
2018-04-22T15:05:28.729Z,6.37
2018-04-22T15:07:56.436Z,6.97
2018-04-22T15:10:23.937Z,8.33
2018-04-22T15:12:51.434Z,7.83
2018-04-22T15:15:18.919Z,6.93
2018-04-22T15:17:46.387Z,7.37
2018-04-22T15:20:13.892Z,6.90
2018-04-22T15:22:41.516Z,7.00
2018-04-22T15:25:09.028Z,6.60
2018-04-22T15:27:36.519Z,6.87
2018-04-22T15:30:04.036Z,6.00
2018-04-22T15:32:31.512Z,5.87
2018-04-22T15:34:59.784Z,6.83
2018-04-22T15:37:27.286Z,5.90
2018-04-22T15:39:54.756Z,6.30
2018-04-22T15:42:22.256Z,5.83
2018-04-22T15:44:49.721Z,5.27
2018-04-22T15:47:17.360Z,5.63
2018-04-22T15:49:44.977Z,5.27
2018-04-22T15:52:12.510Z,5.40
2018-04-22T15:54:40.010Z,5.90
2018-04-22T15:57:07.517Z,6.00
2018-04-22T15:59:36.187Z,6.47
2018-04-22T16:02:03.920Z,5.30
2018-04-22T16:04:31.820Z,5.93
2018-04-22T16:06:59.329Z,5.03
2018-04-22T16:09:27.088Z,6.33
2018-04-22T16:11:55.926Z,4.50
2018-04-22T16:14:24.541Z,4.63
2018-04-22T16:16:52.836Z,5.20
2018-04-22T16:19:21.667Z,5.33
2018-04-22T16:21:49.182Z,4.80
2018-04-22T16:24:17.499Z,5.47
2018-04-22T16:26:45.054Z,5.03
2018-04-22T16:29:12.579Z,5.30
2018-04-22T16:31:40.865Z,5.43
2018-04-22T16:34:08.356Z,5.27
2018-04-22T16:36:35.874Z,5.27
2018-04-22T16:39:04.266Z,5.67
2018-04-22T16:41:32.515Z,6.33
2018-04-22T16:44:00.016Z,5.90
2018-04-22T16:46:27.511Z,5.80
2018-04-22T16:48:55.014Z,5.97
2018-04-22T16:51:23.516Z,6.50
2018-04-22T16:53:51.843Z,5.10
2018-04-22T16:56:19.329Z,5.70
2018-04-22T16:58:47.599Z,6.33
2018-04-22T17:01:15.156Z,7.10
2018-04-22T17:03:42.670Z,6.97
2018-04-22T17:06:10.159Z,7.57
2018-04-22T17:08:37.633Z,6.43
2018-04-22T17:11:05.121Z,6.00
2018-04-22T17:13:33.544Z,6.93
2018-04-22T17:16:01.921Z,6.27
2018-04-22T17:18:29.426Z,6.60
2018-04-22T17:20:57.671Z,6.40
2018-04-22T17:23:25.159Z,6.67
2018-04-22T17:25:52.631Z,7.73
2018-04-22T17:28:20.912Z,6.90
2018-04-22T17:30:49.196Z,7.57
2018-04-22T17:33:16.750Z,7.33
2018-04-22T17:35:44.242Z,7.30
2018-04-22T17:38:11.773Z,7.33
2018-04-22T17:40:39.269Z,7.30
2018-04-22T17:43:06.770Z,7.27
2018-04-22T17:45:35.156Z,7.13
2018-04-22T17:48:03.430Z,7.33
2018-04-22T17:50:31.685Z,7.60
2018-04-22T17:52:59.208Z,9.20
2018-04-22T17:55:26.691Z,8.03
2018-04-22T17:57:54.173Z,7.33
2018-04-22T18:00:21.664Z,7.50
2018-04-22T18:02:49.151Z,7.20
2018-04-22T18:05:16.641Z,7.07
2018-04-22T18:07:44.146Z,7.53
2018-04-22T18:10:11.737Z,11.90
2018-04-22T18:12:39.342Z,7.23
2018-04-22T18:15:09.157Z,6.50
2018-04-22T18:17:38.199Z,6.63
2018-04-22T18:20:06.130Z,6.10
2018-04-22T18:22:34.696Z,6.27
2018-04-22T18:25:03.152Z,7.90
2018-04-22T18:27:30.677Z,6.60
2018-04-22T18:29:58.200Z,7.17
2018-04-22T18:32:25.672Z,6.90
2018-04-22T18:34:54.154Z,6.40
2018-04-22T18:37:22.407Z,7.23
2018-04-22T18:39:49.884Z,7.80
2018-04-22T18:42:17.454Z,7.63
2018-04-22T18:44:45.695Z,7.60
2018-04-22T18:47:14.020Z,6.50
2018-04-22T18:49:41.802Z,7.60
2018-04-22T18:52:09.367Z,6.50
2018-04-22T18:54:36.909Z,6.73
2018-04-22T18:57:05.362Z,6.70
2018-04-22T18:59:32.864Z,6.20
2018-04-22T19:02:00.386Z,7.60
2018-04-22T19:04:27.872Z,7.67
2018-04-22T19:06:55.660Z,6.70
2018-04-22T19:09:25.512Z,7.30
2018-04-22T19:11:53.668Z,7.07
2018-04-22T19:14:21.565Z,5.90
2018-04-22T19:16:49.099Z,6.37
2018-04-22T19:19:16.568Z,6.80
2018-04-22T19:21:44.055Z,7.27
2018-04-22T19:24:11.587Z,6.97
2018-04-22T19:26:39.139Z,8.07
2018-04-22T19:29:06.700Z,7.37
2018-04-22T19:31:34.195Z,6.90
2018-04-22T19:34:02.187Z,7.70
2018-04-22T19:36:30.106Z,7.80
2018-04-22T19:38:58.377Z,8.37
2018-04-22T19:41:25.960Z,7.47
2018-04-22T19:43:53.573Z,7.03
2018-04-22T19:46:21.046Z,6.83
2018-04-22T19:48:48.600Z,7.30
2018-04-22T19:51:16.115Z,8.03
2018-04-22T19:53:44.405Z,8.30
2018-04-22T19:56:12.914Z,7.73
2018-04-22T19:58:41.191Z,8.60
2018-04-22T20:01:08.720Z,7.43
2018-04-22T20:03:37.471Z,7.03
2018-04-22T20:06:05.653Z,8.00
2018-04-22T20:08:33.123Z,8.10
2018-04-22T20:11:00.822Z,7.93
2018-04-22T20:13:28.528Z,8.27
2018-04-22T20:15:57.775Z,7.90
2018-04-22T20:18:26.055Z,6.90
2018-04-22T20:20:54.300Z,8.33
2018-04-22T20:23:22.826Z,7.90
2018-04-22T20:25:50.298Z,7.37
2018-04-22T20:28:17.801Z,7.67
2018-04-22T20:30:46.197Z,8.17
2018-04-22T20:33:13.912Z,7.83
2018-04-22T20:35:41.694Z,7.30
2018-04-22T20:38:09.171Z,8.33
2018-04-22T20:40:36.651Z,8.03
2018-04-22T20:43:04.182Z,7.37
2018-04-22T20:45:31.716Z,9.90
2018-04-22T20:47:59.421Z,8.20
2018-04-22T20:50:26.910Z,7.30
2018-04-22T20:52:54.458Z,8.93
2018-04-22T20:55:21.998Z,8.40
2018-04-22T20:57:49.508Z,7.63
2018-04-22T21:00:17.024Z,7.40
2018-04-22T21:02:44.651Z,7.20
2018-04-22T21:05:12.153Z,8.90
2018-04-22T21:07:40.385Z,8.63
2018-04-22T21:10:07.883Z,8.40
2018-04-22T21:12:35.341Z,8.10
2018-04-22T21:15:02.818Z,8.00
2018-04-22T21:17:30.374Z,8.00
2018-04-22T21:19:57.842Z,8.30
2018-04-22T21:22:26.127Z,7.70
2018-04-22T21:24:54.489Z,7.53
2018-04-22T21:27:21.992Z,7.17
2018-04-22T21:29:49.463Z,6.93
2018-04-22T21:32:16.982Z,7.87
2018-04-22T21:34:44.476Z,8.77
2018-04-22T21:37:12.166Z,8.60
2018-04-22T21:39:39.689Z,8.50
2018-04-22T21:42:07.204Z,8.13
2018-04-22T21:44:34.672Z,9.33
2018-04-22T21:47:02.924Z,8.07
2018-04-22T21:49:30.428Z,9.00
2018-04-22T21:51:57.902Z,9.47
2018-04-22T21:54:25.373Z,9.00
2018-04-22T21:56:52.889Z,8.40
2018-04-22T21:59:21.112Z,8.20
2018-04-22T22:01:48.584Z,8.90
2018-04-22T22:04:16.139Z,8.03
2018-04-22T22:06:43.631Z,7.80
2018-04-22T22:09:11.876Z,7.60
2018-04-22T22:11:39.365Z,7.90
2018-04-22T22:14:06.858Z,7.80
2018-04-22T22:16:34.576Z,7.50
2018-04-22T22:19:02.077Z,8.87
2018-04-22T22:21:29.587Z,7.53
2018-04-22T22:23:57.063Z,8.30
2018-04-22T22:26:24.560Z,8.37
2018-04-22T22:28:52.278Z,8.60
2018-04-22T22:31:19.848Z,8.03
2018-04-22T22:33:47.316Z,7.30
2018-04-22T22:36:15.578Z,8.20
2018-04-22T22:38:43.064Z,9.00
2018-04-22T22:41:10.548Z,7.83
2018-04-22T22:43:38.013Z,7.60
2018-04-22T22:46:05.514Z,8.00
2018-04-22T22:48:33.001Z,8.10
2018-04-22T22:51:01.243Z,8.93
2018-04-22T22:53:29.510Z,8.30
2018-04-22T22:55:57.037Z,7.97
2018-04-22T22:58:24.530Z,8.43
2018-04-22T23:00:51.991Z,7.90
2018-04-22T23:03:19.529Z,8.57
2018-04-22T23:05:47.014Z,8.07
2018-04-22T23:08:14.530Z,8.17
2018-04-22T23:10:42.034Z,8.60
2018-04-22T23:13:09.497Z,9.87
2018-04-22T23:15:36.980Z,9.87
2018-04-22T23:18:05.233Z,10.90
2018-04-22T23:20:32.768Z,13.27
2018-04-22T23:23:00.239Z,14.00
2018-04-22T23:25:27.767Z,15.77
2018-04-22T23:27:55.282Z,16.00
2018-04-22T23:30:22.784Z,15.10
2018-04-22T23:32:50.252Z,11.23
2018-04-22T23:35:17.746Z,9.27
2018-04-22T23:37:45.234Z,10.10
2018-04-22T23:40:13.509Z,9.87
2018-04-22T23:42:41.740Z,9.27
2018-04-22T23:45:09.229Z,10.13
2018-04-22T23:47:36.704Z,9.53
2018-04-22T23:50:04.963Z,9.13
2018-04-22T23:52:32.455Z,10.27
2018-04-22T23:54:59.928Z,12.50
2018-04-22T23:57:27.436Z,10.47
2018-04-22T23:59:54.914Z,10.90
